Time;durP1;ratioP1;P1;durP2;ratioP2;P2;SDS_P1;SDS_P2;PMS_P1;PMS_P2;Temp;Humidity;BMP_temperature;BMP_pressure;BME280_temperature;BME280_humidity;BME280_pressure;Samples;Min_cycle;Max_cycle;Signal;HPM_P1;HPM_P2
2022/08/23 00:00:44;;;;;;;;;;;19.20;99.90;;;;;;5028164;28;20295;-70
2022/08/23 00:03:10;;;;;;;;;;;19.20;99.90;;;;;;5028602;28;19928;-70
2022/08/23 00:05:35;;;;;;;;;;;19.20;99.90;;;;;;5028990;28;19921;-70
2022/08/23 00:08:01;;;;;;;;;;;19.20;99.90;;;;;;5028970;28;20367;-70
2022/08/23 00:10:27;;;;;;;;;;;19.20;99.90;;;;;;5028571;28;20383;-70
2022/08/23 00:12:52;;;;;;;;;;;19.20;99.90;;;;;;5028869;28;19987;-70
2022/08/23 00:15:19;;;;;;;;;;;19.20;99.90;;;;;;5028411;28;19979;-70
2022/08/23 00:17:45;;;;;;;;;;;19.10;99.90;;;;;;5028626;28;20454;-69
2022/08/23 00:20:12;;;;;;;;;;;19.10;99.90;;;;;;5028655;28;19944;-70
2022/08/23 00:22:38;;;;;;;;;;;19.10;99.90;;;;;;5028833;28;19936;-70
2022/08/23 00:25:05;;;;;;;;;;;19.10;99.90;;;;;;5027241;28;20317;-70
2022/08/23 00:27:32;;;;;;;;;;;19.10;99.90;;;;;;5028860;28;19967;-70
2022/08/23 00:29:57;;;;;;;;;;;19.10;99.90;;;;;;5028685;28;19924;-70
2022/08/23 00:32:24;;;;;;;;;;;19.00;99.90;;;;;;5028854;28;20016;-70
2022/08/23 00:34:50;;;;;;;;;;;19.00;99.90;;;;;;5028286;28;19983;-70
2022/08/23 00:37:16;;;;;;;;;;;19.00;99.90;;;;;;5029070;28;20007;-70
2022/08/23 00:39:42;;;;;;;;;;;18.90;99.90;;;;;;5028324;28;20023;-70
2022/08/23 00:47:53;;;;;;;;;;;18.80;99.90;;;;;;5028700;28;19921;-70
2022/08/23 00:50:24;;;;;;;;;;;18.80;99.90;;;;;;5029908;28;20015;-70
2022/08/23 00:52:56;;;;;;;;;;;18.80;99.90;;;;;;5028974;28;19964;-70
2022/08/23 00:55:23;;;;;;;;;;;18.70;99.90;;;;;;5026903;28;19921;-70
2022/08/23 00:57:49;;;;;;;;;;;18.70;99.90;;;;;;5026730;28;19921;-72
2022/08/23 01:00:16;;;;;;;;;;;18.70;99.90;;;;;;5028357;28;20498;-71
2022/08/23 01:02:44;;;;;;;;;;;18.60;99.90;;;;;;5026996;28;19967;-71
2022/08/23 01:05:10;;;;;;;;;;;18.60;99.90;;;;;;5027961;28;19932;-70
2022/08/23 01:07:50;;;;;;;;;;;18.60;99.90;;;;;;5028052;28;19925;-70
2022/08/23 01:10:19;;;;;;;;;;;18.60;99.90;;;;;;5028444;28;20342;-70
2022/08/23 01:12:49;;;;;;;;;;;18.60;99.90;;;;;;5027858;28;20341;-70
2022/08/23 01:15:17;;;;;;;;;;;18.60;99.90;;;;;;5032067;28;19921;-70
2022/08/23 01:17:47;;;;;;;;;;;18.50;99.90;;;;;;5032069;28;20012;-71
2022/08/23 01:20:17;;;;;;;;;;;18.60;99.90;;;;;;5032145;28;20000;-70
2022/08/23 01:22:56;;;;;;;;;;;18.60;99.90;;;;;;5031459;28;19933;-70
2022/08/23 01:25:22;;;;;;;;;;;18.60;99.90;;;;;;5032487;28;19975;-70
2022/08/23 01:27:48;;;;;;;;;;;18.50;99.90;;;;;;5032748;28;19925;-71
2022/08/23 01:30:15;;;;;;;;;;;18.50;99.90;;;;;;5032831;28;20011;-70
2022/08/23 01:32:51;;;;;;;;;;;18.40;99.90;;;;;;5032382;28;19921;-71
2022/08/23 01:35:17;;;;;;;;;;;18.50;99.90;;;;;;5032388;28;19928;-70
2022/08/23 01:37:43;;;;;;;;;;;18.40;99.90;;;;;;5032534;28;19925;-70
2022/08/23 01:40:09;;;;;;;;;;;18.50;99.90;;;;;;5032599;28;19921;-70
2022/08/23 01:42:35;;;;;;;;;;;18.40;99.90;;;;;;5032642;28;19921;-70
2022/08/23 01:45:01;;;;;;;;;;;18.40;99.90;;;;;;5032414;28;19928;-71
2022/08/23 01:47:26;;;;;;;;;;;18.30;99.90;;;;;;5032412;28;19928;-70
2022/08/23 01:49:52;;;;;;;;;;;18.30;99.90;;;;;;5031900;28;19921;-70
2022/08/23 01:52:18;;;;;;;;;;;18.20;99.90;;;;;;5032375;28;19931;-70
2022/08/23 01:54:43;;;;;;;;;;;18.30;99.90;;;;;;5032418;28;19968;-70
2022/08/23 01:57:09;;;;;;;;;;;18.30;99.90;;;;;;5032296;28;19932;-70
2022/08/23 01:59:35;;;;;;;;;;;18.30;99.90;;;;;;5032010;28;20330;-70
2022/08/23 02:02:01;;;;;;;;;;;18.30;99.90;;;;;;5032266;28;19944;-70
2022/08/23 02:04:27;;;;;;;;;;;18.30;99.90;;;;;;5031905;28;19975;-70
2022/08/23 02:06:53;;;;;;;;;;;18.30;99.90;;;;;;5031876;28;19921;-70
2022/08/23 02:09:18;;;;;;;;;;;18.30;99.90;;;;;;5031856;28;20003;-70
2022/08/23 02:11:44;;;;;;;;;;;18.30;99.90;;;;;;5031884;28;20363;-70
2022/08/23 02:14:13;;;;;;;;;;;18.20;99.90;;;;;;5032016;28;19921;-70
2022/08/23 02:16:42;;;;;;;;;;;18.20;99.90;;;;;;5031785;28;20462;-70
2022/08/23 02:19:09;;;;;;;;;;;18.20;99.90;;;;;;5032090;28;19928;-70
2022/08/23 02:21:35;;;;;;;;;;;18.20;99.90;;;;;;5031278;28;19925;-70
2022/08/23 02:24:09;;;;;;;;;;;18.10;99.90;;;;;;5031210;28;19921;-71
2022/08/23 02:26:36;;;;;;;;;;;18.10;99.90;;;;;;5031346;28;19921;-70
2022/08/23 02:29:03;;;;;;;;;;;18.10;99.90;;;;;;5031785;28;19927;-70
2022/08/23 02:31:28;;;;;;;;;;;18.10;99.90;;;;;;5031616;28;20007;-70
2022/08/23 02:33:54;;;;;;;;;;;18.00;99.90;;;;;;5031268;28;20348;-70
2022/08/23 02:36:19;;;;;;;;;;;18.00;99.90;;;;;;5031490;28;19930;-70
2022/08/23 02:38:45;;;;;;;;;;;17.90;99.90;;;;;;5031487;28;19928;-70
2022/08/23 02:41:10;;;;;;;;;;;17.90;99.90;;;;;;5031489;28;19921;-70
2022/08/23 02:43:36;;;;;;;;;;;17.80;99.90;;;;;;5031319;28;19925;-70
2022/08/23 02:46:05;;;;;;;;;;;17.80;99.90;;;;;;5031071;28;19972;-70
2022/08/23 02:48:33;;;;;;;;;;;17.80;99.90;;;;;;5031309;28;19921;-70
2022/08/23 02:51:04;;;;;;;;;;;17.80;99.90;;;;;;5031396;28;19929;-70
2022/08/23 02:53:30;;;;;;;;;;;17.80;99.90;;;;;;5031373;28;19947;-70
2022/08/23 02:55:55;;;;;;;;;;;17.80;99.90;;;;;;5030575;28;19920;-70
2022/08/23 02:58:22;;;;;;;;;;;17.90;99.90;;;;;;5031223;28;19920;-70
2022/08/23 03:00:48;;;;;;;;;;;17.90;99.90;;;;;;5030897;28;19932;-70
2022/08/23 03:03:13;;;;;;;;;;;17.90;99.90;;;;;;5031123;28;19921;-70
2022/08/23 03:05:39;;;;;;;;;;;17.90;99.90;;;;;;5030089;28;19925;-70
2022/08/23 03:08:04;;;;;;;;;;;17.90;99.90;;;;;;5030445;28;19931;-70
2022/08/23 03:10:30;;;;;;;;;;;17.90;99.90;;;;;;5030908;28;19932;-70
2022/08/23 03:12:56;;;;;;;;;;;18.00;99.90;;;;;;5030162;28;19921;-70
2022/08/23 03:15:21;;;;;;;;;;;18.00;99.90;;;;;;5030729;28;19928;-70
2022/08/23 03:17:47;;;;;;;;;;;18.00;99.90;;;;;;5030143;28;19921;-70
2022/08/23 03:20:13;;;;;;;;;;;18.00;99.90;;;;;;5030319;28;19925;-70
2022/08/23 03:22:39;;;;;;;;;;;18.00;99.90;;;;;;5030115;28;20307;-70
2022/08/23 03:25:05;;;;;;;;;;;17.90;99.90;;;;;;5030562;28;20384;-71
2022/08/23 03:27:31;;;;;;;;;;;17.90;99.90;;;;;;5030726;28;19925;-70
2022/08/23 03:29:57;;;;;;;;;;;17.90;99.90;;;;;;5029957;28;19968;-71
2022/08/23 03:32:22;;;;;;;;;;;17.90;99.90;;;;;;5030599;28;19987;-70
2022/08/23 03:34:48;;;;;;;;;;;17.80;99.90;;;;;;5030499;28;20303;-70
2022/08/23 03:37:32;;;;;;;;;;;17.80;99.90;;;;;;5029554;28;19916;-70
2022/08/23 03:39:58;;;;;;;;;;;17.80;99.90;;;;;;5030276;28;20735;-70
2022/08/23 03:42:24;;;;;;;;;;;17.70;99.90;;;;;;5030102;28;19964;-69
2022/08/23 03:44:49;;;;;;;;;;;17.70;99.90;;;;;;5030320;28;19921;-69
2022/08/23 03:47:15;;;;;;;;;;;17.70;99.90;;;;;;5030035;28;20406;-69
2022/08/23 03:49:40;;;;;;;;;;;17.70;99.90;;;;;;5030019;28;20442;-69
2022/08/23 03:52:06;;;;;;;;;;;17.70;99.90;;;;;;5030390;28;19921;-69
2022/08/23 03:54:32;;;;;;;;;;;17.60;99.90;;;;;;5029981;28;19969;-69
2022/08/23 03:56:59;;;;;;;;;;;17.60;99.90;;;;;;5030147;28;19945;-69
2022/08/23 03:59:25;;;;;;;;;;;17.60;99.90;;;;;;5029690;28;19952;-69
2022/08/23 04:01:51;;;;;;;;;;;17.60;99.90;;;;;;5030229;28;19924;-69
2022/08/23 04:04:16;;;;;;;;;;;17.50;99.90;;;;;;5029638;28;19984;-69
2022/08/23 04:06:44;;;;;;;;;;;17.50;99.90;;;;;;5029919;28;19925;-69
2022/08/23 04:09:10;;;;;;;;;;;17.50;99.90;;;;;;5029825;28;20020;-69
2022/08/23 04:11:35;;;;;;;;;;;17.40;99.90;;;;;;5029452;28;19920;-69
2022/08/23 04:14:01;;;;;;;;;;;17.30;99.90;;;;;;5029508;28;20359;-69
2022/08/23 04:16:27;;;;;;;;;;;17.40;99.90;;;;;;5028199;28;19943;-69
2022/08/23 04:18:53;;;;;;;;;;;17.30;99.90;;;;;;5029396;28;19928;-69
2022/08/23 04:21:21;;;;;;;;;;;17.30;99.90;;;;;;5029715;28;19920;-69
2022/08/23 04:23:46;;;;;;;;;;;17.30;99.90;;;;;;5029499;28;20618;-69
2022/08/23 04:26:12;;;;;;;;;;;17.30;99.90;;;;;;5029844;28;19928;-69
2022/08/23 04:28:37;;;;;;;;;;;17.40;99.90;;;;;;5029404;28;20564;-70
2022/08/23 04:31:03;;;;;;;;;;;17.40;99.90;;;;;;5029754;28;19924;-69
2022/08/23 04:33:31;;;;;;;;;;;17.40;99.90;;;;;;5029036;28;19924;-69
2022/08/23 04:35:57;;;;;;;;;;;17.40;99.90;;;;;;5029421;28;19932;-69
2022/08/23 04:38:23;;;;;;;;;;;17.40;99.90;;;;;;5029300;28;19921;-69
2022/08/23 04:43:33;;;;;;;;;;;17.40;99.90;;;;;;5029484;28;20003;-69
2022/08/23 04:45:58;;;;;;;;;;;17.40;99.90;;;;;;5029624;28;20537;-69
2022/08/23 04:48:24;;;;;;;;;;;17.40;99.90;;;;;;5031838;28;19921;-69
2022/08/23 04:50:49;;;;;;;;;;;17.40;99.90;;;;;;5033502;28;19921;-69
2022/08/23 04:53:15;;;;;;;;;;;17.40;99.90;;;;;;5033705;28;19921;-69
2022/08/23 04:55:40;;;;;;;;;;;17.40;99.90;;;;;;5033317;28;20015;-69
2022/08/23 04:58:06;;;;;;;;;;;17.40;99.90;;;;;;5033294;28;20351;-69
2022/08/23 05:00:32;;;;;;;;;;;17.50;99.90;;;;;;5033407;28;20391;-70
2022/08/23 05:02:58;;;;;;;;;;;17.50;99.90;;;;;;5032460;28;19963;-69
2022/08/23 05:05:24;;;;;;;;;;;17.50;99.90;;;;;;5033106;28;19925;-69
2022/08/23 05:07:50;;;;;;;;;;;17.50;99.90;;;;;;5033162;28;19975;-69
2022/08/23 05:10:15;;;;;;;;;;;17.40;99.90;;;;;;5033340;28;19925;-69
2022/08/23 05:12:41;;;;;;;;;;;17.40;99.90;;;;;;5032614;28;20441;-69
2022/08/23 05:15:08;;;;;;;;;;;17.40;99.90;;;;;;5033181;28;20391;-70
2022/08/23 05:17:34;;;;;;;;;;;17.50;99.90;;;;;;5032429;28;19928;-71
2022/08/23 05:20:00;;;;;;;;;;;17.50;99.90;;;;;;5032106;28;19971;-70
2022/08/23 05:22:26;;;;;;;;;;;17.50;99.90;;;;;;5030549;28;19964;-69
2022/08/23 05:24:51;;;;;;;;;;;17.50;99.90;;;;;;5032261;28;20298;-69
2022/08/23 05:27:17;;;;;;;;;;;17.60;99.90;;;;;;5032681;28;19921;-69
2022/08/23 05:29:42;;;;;;;;;;;17.60;99.90;;;;;;5032839;28;20395;-70
2022/08/23 05:32:08;;;;;;;;;;;17.70;99.90;;;;;;5032699;28;19936;-69
2022/08/23 05:34:33;;;;;;;;;;;17.80;99.90;;;;;;5032448;28;19928;-69
2022/08/23 05:36:59;;;;;;;;;;;17.80;99.90;;;;;;5032189;28;19995;-69
2022/08/23 05:39:24;;;;;;;;;;;17.90;99.90;;;;;;5032884;28;20316;-70
2022/08/23 05:41:50;;;;;;;;;;;17.90;99.90;;;;;;5032527;28;19924;-69
2022/08/23 05:44:15;;;;;;;;;;;18.00;99.90;;;;;;5032580;28;20704;-69
2022/08/23 05:46:41;;;;;;;;;;;18.10;99.90;;;;;;5031895;28;19981;-69
2022/08/23 05:49:07;;;;;;;;;;;18.20;99.90;;;;;;5032645;28;20390;-69
2022/08/23 05:51:33;;;;;;;;;;;18.30;99.90;;;;;;5032400;28;20004;-69
2022/08/23 05:54:00;;;;;;;;;;;18.40;99.90;;;;;;5032153;28;20335;-70
2022/08/23 05:56:28;;;;;;;;;;;18.50;99.90;;;;;;5032070;28;19967;-70
2022/08/23 05:58:57;;;;;;;;;;;18.50;99.90;;;;;;5031324;28;20028;-70
2022/08/23 06:01:23;;;;;;;;;;;18.60;99.90;;;;;;5031484;28;19932;-70
2022/08/23 06:03:48;;;;;;;;;;;18.70;99.90;;;;;;5031889;28;19921;-70
2022/08/23 06:06:14;;;;;;;;;;;18.80;99.90;;;;;;5030770;28;19927;-70
2022/08/23 06:08:41;;;;;;;;;;;18.90;99.90;;;;;;5031304;28;20375;-72
2022/08/23 06:11:11;;;;;;;;;;;19.00;99.90;;;;;;5030929;28;19921;-70
2022/08/23 06:13:41;;;;;;;;;;;19.10;99.90;;;;;;5030779;28;19924;-70
2022/08/23 06:16:07;;;;;;;;;;;19.10;99.90;;;;;;5031007;28;19967;-70
2022/08/23 06:18:33;;;;;;;;;;;19.30;99.90;;;;;;5031288;28;19921;-70
2022/08/23 06:21:00;;;;;;;;;;;19.20;99.90;;;;;;5030747;28;19931;-71
2022/08/23 06:23:25;;;;;;;;;;;19.20;99.90;;;;;;5030661;28;19925;-72
2022/08/23 06:25:51;;;;;;;;;;;19.20;99.90;;;;;;5031036;28;20035;-71
2022/08/23 06:28:16;;;;;;;;;;;19.20;99.90;;;;;;5030294;28;20430;-71
2022/08/23 06:30:42;;;;;;;;;;;19.30;99.90;;;;;;5030529;28;19921;-70
2022/08/23 06:33:08;;;;;;;;;;;19.20;99.90;;;;;;5022129;28;20371;-69
2022/08/23 06:35:33;;;;;;;;;;;19.20;99.90;;;;;;5027726;28;20031;-71
2022/08/23 06:38:01;;;;;;;;;;;19.20;99.90;;;;;;5029240;28;19925;-70
2022/08/23 06:40:27;;;;;;;;;;;19.20;99.90;;;;;;5031204;28;20459;-71
2022/08/23 06:42:53;;;;;;;;;;;19.30;99.90;;;;;;5018783;28;20952;-71
2022/08/23 06:45:19;;;;;;;;;;;19.30;99.90;;;;;;5029509;28;20252;-71
2022/08/23 06:47:45;;;;;;;;;;;19.30;99.90;;;;;;5028391;28;20019;-71
2022/08/23 06:50:10;;;;;;;;;;;19.30;99.90;;;;;;5029950;28;20349;-72
2022/08/23 06:52:36;;;;;;;;;;;19.30;99.90;;;;;;5023623;28;19952;-71
2022/08/23 06:55:02;;;;;;;;;;;19.40;99.90;;;;;;5024635;28;19944;-71
2022/08/23 06:57:28;;;;;;;;;;;19.40;99.90;;;;;;5030399;28;19928;-71
2022/08/23 06:59:54;;;;;;;;;;;19.50;99.90;;;;;;5029968;28;20415;-70
2022/08/23 07:02:19;;;;;;;;;;;19.50;99.90;;;;;;5030415;28;19921;-71
2022/08/23 07:04:45;;;;;;;;;;;19.60;99.90;;;;;;5030255;28;19932;-71
2022/08/23 07:07:10;;;;;;;;;;;19.70;99.90;;;;;;5031449;28;19920;-71
2022/08/23 07:09:36;;;;;;;;;;;19.70;99.90;;;;;;5030498;28;19925;-70
2022/08/23 07:12:02;;;;;;;;;;;19.80;99.90;;;;;;5025642;28;20052;-71
2022/08/23 07:14:27;;;;;;;;;;;19.80;99.90;;;;;;5029627;28;20485;-71
2022/08/23 07:16:55;;;;;;;;;;;19.90;99.90;;;;;;5028934;28;19928;-71
2022/08/23 07:19:22;;;;;;;;;;;19.90;99.90;;;;;;5030952;28;19921;-71
2022/08/23 07:21:48;;;;;;;;;;;20.00;99.90;;;;;;5028767;28;19932;-71
2022/08/23 07:24:14;;;;;;;;;;;20.10;99.90;;;;;;5020479;28;19921;-71
2022/08/23 07:26:41;;;;;;;;;;;20.20;99.90;;;;;;5024891;28;19940;-70
2022/08/23 07:29:08;;;;;;;;;;;20.20;99.90;;;;;;5030145;28;19991;-71
2022/08/23 07:31:36;;;;;;;;;;;20.30;99.90;;;;;;5031121;28;19925;-71
2022/08/23 07:34:03;;;;;;;;;;;20.40;99.90;;;;;;5030139;28;19921;-72
2022/08/23 07:36:29;;;;;;;;;;;20.50;99.90;;;;;;5030248;28;19932;-72
2022/08/23 07:38:55;;;;;;;;;;;20.60;99.90;;;;;;5029365;28;19920;-72
2022/08/23 07:41:26;;;;;;;;;;;20.70;99.90;;;;;;5031424;28;19922;-72
2022/08/23 07:43:52;;;;;;;;;;;20.80;99.90;;;;;;5029029;28;20349;-73
2022/08/23 07:46:18;;;;;;;;;;;20.80;99.90;;;;;;5029431;28;20764;-72
2022/08/23 07:48:43;;;;;;;;;;;20.90;99.90;;;;;;5030316;28;20019;-72
2022/08/23 07:51:10;;;;;;;;;;;21.00;99.90;;;;;;5028659;28;19924;-72
2022/08/23 07:53:36;;;;;;;;;;;21.10;99.90;;;;;;5029515;28;19925;-71
2022/08/23 07:56:05;;;;;;;;;;;21.20;99.90;;;;;;5018941;28;19925;-71
2022/08/23 07:58:31;;;;;;;;;;;21.30;99.90;;;;;;5028789;28;19927;-72
2022/08/23 08:01:06;;;;;;;;;;;21.40;99.90;;;;;;5028750;28;19921;-72
2022/08/23 08:03:32;;;;;;;;;;;21.50;99.90;;;;;;5028917;28;20383;-72
2022/08/23 08:05:59;;;;;;;;;;;21.50;99.90;;;;;;5029034;28;20007;-72
2022/08/23 08:08:25;;;;;;;;;;;21.60;99.90;;;;;;5028969;28;19928;-72
2022/08/23 08:10:53;;;;;;;;;;;21.70;99.90;;;;;;5015897;28;19984;-72
2022/08/23 08:13:18;;;;;;;;;;;21.80;99.90;;;;;;5030134;28;19971;-72
2022/08/23 08:15:44;;;;;;;;;;;21.80;99.90;;;;;;5028506;28;19924;-73
2022/08/23 08:18:09;;;;;;;;;;;21.90;99.90;;;;;;5029407;28;20288;-72
2022/08/23 08:20:35;;;;;;;;;;;22.10;99.90;;;;;;5029680;28;19921;-72
2022/08/23 08:23:01;;;;;;;;;;;22.20;99.90;;;;;;5026651;28;19925;-72
2022/08/23 08:25:29;;;;;;;;;;;22.30;99.90;;;;;;5029382;28;19921;-72
2022/08/23 08:27:54;;;;;;;;;;;22.40;99.90;;;;;;5029254;28;20388;-72
2022/08/23 08:30:20;;;;;;;;;;;22.50;99.90;;;;;;5029499;28;19921;-72
2022/08/23 08:32:45;;;;;;;;;;;22.60;99.90;;;;;;5030348;28;19921;-72
2022/08/23 08:35:11;;;;;;;;;;;22.70;99.80;;;;;;5029539;28;19921;-72
2022/08/23 08:37:38;;;;;;;;;;;22.70;99.90;;;;;;5029518;28;19932;-72
2022/08/23 08:40:04;;;;;;;;;;;22.70;99.90;;;;;;5029261;28;19928;-72
2022/08/23 08:42:41;;;;;;;;;;;22.70;99.40;;;;;;5030356;28;19924;-72
2022/08/23 08:45:13;;;;;;;;;;;22.80;99.70;;;;;;5017230;28;19921;-72
2022/08/23 08:47:51;;;;;;;;;;;22.90;99.30;;;;;;5029190;28;19921;-72
2022/08/23 08:50:19;;;;;;;;;;;22.90;99.80;;;;;;5025484;28;20387;-72
2022/08/23 08:52:50;;;;;;;;;;;23.00;99.10;;;;;;5029476;28;19965;-72
2022/08/23 08:55:45;;;;;;;;;;;23.10;99.30;;;;;;5029011;28;19925;-72
2022/08/23 08:58:14;;;;;;;;;;;23.20;99.50;;;;;;5024757;28;19933;-72
2022/08/23 09:00:39;;;;;;;;;;;23.40;98.80;;;;;;5029293;28;19921;-73
2022/08/23 09:03:09;;;;;;;;;;;23.60;98.90;;;;;;5029404;28;19975;-72
2022/08/23 09:05:37;;;;;;;;;;;23.70;98.60;;;;;;5028350;28;19967;-73
2022/08/23 09:08:05;;;;;;;;;;;23.90;98.40;;;;;;5020996;28;19921;-70
2022/08/23 09:10:38;;;;;;;;;;;24.20;98.50;;;;;;5029646;28;20003;-70
2022/08/23 09:13:13;;;;;;;;;;;24.40;98.30;;;;;;5029526;28;19920;-70
2022/08/23 09:15:56;;;;;;;;;;;24.60;97.50;;;;;;5028973;28;19932;-70
2022/08/23 09:18:23;;;;;;;;;;;24.80;97.10;;;;;;5029710;28;20734;-70
2022/08/23 09:20:51;;;;;;;;;;;25.00;97.50;;;;;;5029297;28;19929;-70
2022/08/23 09:23:19;;;;;;;;;;;25.20;97.20;;;;;;5029207;28;19921;-70
2022/08/23 09:25:52;;;;;;;;;;;25.30;96.30;;;;;;5029236;28;20366;-70
2022/08/23 09:28:18;;;;;;;;;;;25.60;96.60;;;;;;5029026;28;19924;-71
2022/08/23 09:30:49;;;;;;;;;;;26.10;96.40;;;;;;5029430;28;19921;-71
2022/08/23 09:33:16;;;;;;;;;;;26.70;96.10;;;;;;5029637;28;19928;-71
2022/08/23 09:35:42;;;;;;;;;;;27.30;95.00;;;;;;5030961;28;19947;-70
2022/08/23 09:38:20;;;;;;;;;;;27.80;94.30;;;;;;5032067;28;19939;-70
2022/08/23 09:40:48;;;;;;;;;;;28.30;93.30;;;;;;5024006;28;19952;-71
2022/08/23 09:45:49;;;;;;;5.82;2.30;;;29.10;91.20;;;;;;5161013;27;20438;-72
2022/08/23 09:48:42;;;;;;;5.65;2.33;;;29.60;91.60;;;;;;5138937;27;20919;-74
2022/08/23 09:51:17;;;;;;;;;;;30.10;90.90;;;;;;5127687;27;20047;-74
2022/08/23 09:53:49;;;;;;;;;;;30.40;89.70;;;;;;5148536;27;20447;-74
2022/08/23 09:56:18;;;;;;;;;;;30.60;88.30;;;;;;5134059;27;19927;-74
2022/08/23 09:58:45;;;;;;;3.13;1.90;;;30.80;85.30;;;;;;5145796;27;20030;-74
2022/08/23 10:01:22;;;;;;;5.70;1.98;;;31.00;85.30;;;;;;5146258;27;21049;-74
2022/08/23 10:04:15;;;;;;;5.22;1.80;;;31.10;82.80;;;;;;5126414;27;20425;-74
2022/08/23 10:06:44;;;;;;;4.53;1.35;;;31.20;84.40;;;;;;5138726;27;20414;-74
2022/08/23 10:09:22;;;;;;;5.72;1.70;;;31.50;82.30;;;;;;5145398;27;20479;-74
2022/08/23 10:11:47;;;;;;;;;;;31.80;81.40;;;;;;5135575;27;20043;-74
2022/08/23 10:14:16;;;;;;;;;;;31.60;79.10;;;;;;5146580;27;19964;-74
2022/08/23 10:16:47;;;;;;;;;;;31.40;79.40;;;;;;5146660;27;19919;-74
2022/08/23 10:19:33;;;;;;;;;;;31.30;81.20;;;;;;5140228;27;19920;-74
2022/08/23 10:22:02;;;;;;;;;;;31.50;76.60;;;;;;5127799;27;20444;-74
2022/08/23 10:24:35;;;;;;;;;;;31.50;76.30;;;;;;5146150;27;20014;-72
2022/08/23 10:30:09;;;;;;;;;;;31.80;77.20;;;;;;5145231;27;20046;-72
2022/08/23 10:32:53;;;;;;;;;;;32.10;75.30;;;;;;5147533;27;20436;-72
2022/08/23 10:35:25;;;;;;;;;;;32.20;73.60;;;;;;5147942;27;19919;-72
2022/08/23 10:38:03;;;;;;;;;;;32.40;71.40;;;;;;5143566;27;19976;-72
2022/08/23 10:40:40;;;;;;;;;;;32.50;73.10;;;;;;5145945;27;20076;-72
2022/08/23 10:43:29;;;;;;;;;;;32.50;71.90;;;;;;5133199;27;20504;-72
2022/08/23 10:45:56;;;;;;;;;;;32.70;72.40;;;;;;5141135;27;19923;-72
2022/08/23 10:48:28;;;;;;;;;;;32.80;71.70;;;;;;5146212;27;19919;-72
2022/08/23 10:50:56;;;;;;;;;;;32.90;71.00;;;;;;5145198;27;20412;-72
2022/08/23 10:53:23;;;;;;;;;;;32.90;70.30;;;;;;5135658;27;19919;-72
2022/08/23 10:56:03;;;;;;;;;;;32.90;68.90;;;;;;5137395;27;19923;-72
2022/08/23 10:58:46;;;;;;;;;;;32.90;69.20;;;;;;5132398;27;19919;-72
2022/08/23 11:01:15;;;;;;;;;;;33.00;69.00;;;;;;5121482;27;20030;-72
2022/08/23 11:03:49;;;;;;;;;;;33.10;67.20;;;;;;5121057;27;19930;-72
2022/08/23 11:06:39;;;;;;;;;;;33.20;68.20;;;;;;5118383;27;19954;-72
2022/08/23 11:09:13;;;;;;;;;;;33.20;66.80;;;;;;5132373;27;19968;-72
2022/08/23 11:11:58;;;;;;;;;;;33.10;66.20;;;;;;5133283;27;19920;-72
2022/08/23 11:14:44;;;;;;;;;;;33.10;68.30;;;;;;5119008;27;20400;-72
2022/08/23 11:17:22;;;;;;;;;;;33.20;66.30;;;;;;5130218;27;20024;-72
2022/08/23 11:20:02;;;;;;;;;;;33.30;65.00;;;;;;5132976;27;19923;-72
2022/08/23 11:22:30;;;;;;;;;;;33.50;65.00;;;;;;5112676;28;19959;-71
2022/08/23 11:24:57;;;;;;;;;;;33.80;64.20;;;;;;5126507;27;19923;-71
2022/08/23 11:27:31;;;;;;;;;;;34.00;65.10;;;;;;5131728;27;19920;-71
2022/08/23 11:30:17;;;;;;;;;;;34.20;63.20;;;;;;5129467;27;19923;-71
2022/08/23 11:32:44;;;;;;;;;;;34.30;63.30;;;;;;5112239;27;19955;-71
2022/08/23 11:35:36;;;;;;;4.80;1.05;;;34.50;62.90;;;;;;5117557;27;20013;-71
2022/08/23 11:38:04;;;;;;;3.75;1.25;;;34.60;62.60;;;;;;5114831;27;20409;-71
2022/08/23 11:40:56;;;;;;;3.05;1.10;;;34.70;60.50;;;;;;5110860;27;20770;-71
2022/08/23 11:43:31;;;;;;;4.03;1.13;;;34.80;59.80;;;;;;5110951;27;20431;-71
2022/08/23 11:46:40;;;;;;;3.30;1.27;;;34.90;61.10;;;;;;5122012;27;20817;-71
2022/08/23 11:49:27;;;;;;;4.37;1.27;;;35.10;59.60;;;;;;5121157;27;20441;-71
2022/08/23 11:52:11;;;;;;;;;;;35.10;59.90;;;;;;5118856;27;20139;-71
2022/08/23 11:54:46;;;;;;;;;;;35.10;55.50;;;;;;5118612;27;19946;-71
2022/08/23 11:57:30;;;;;;;;;;;34.90;57.50;;;;;;5121050;27;20068;-71
2022/08/23 12:00:15;;;;;;;2.25;0.90;;;34.90;57.60;;;;;;5118384;27;19923;-71
2022/08/23 12:03:00;;;;;;;6.60;1.35;;;35.10;57.90;;;;;;5130960;27;20130;-71
2022/08/23 12:06:01;;;;;;;3.58;1.20;;;35.20;58.30;;;;;;5130647;27;20489;-71
2022/08/23 12:08:48;;;;;;;2.70;1.17;;;35.50;56.80;;;;;;5121740;27;20560;-71
2022/08/23 12:11:16;;;;;;;2.85;1.00;;;35.60;56.70;;;;;;5117418;27;20403;-71
2022/08/23 12:13:55;;;;;;;4.45;1.20;;;35.40;56.50;;;;;;5115692;27;20542;-71
2022/08/23 12:16:22;;;;;;;7.00;1.30;;;35.30;54.00;;;;;;5110063;28;20534;-71
2022/08/23 12:18:48;;;;;;;3.78;1.15;;;35.40;53.90;;;;;;5126589;27;20407;-71
2022/08/23 12:21:22;;;;;;;2.57;1.10;;;35.40;55.60;;;;;;5120299;27;20771;-71
2022/08/23 12:23:53;;;;;;;3.25;1.05;;;35.50;54.20;;;;;;5109607;27;20420;-71
2022/08/23 12:26:23;;;;;;;;;;;35.60;54.30;;;;;;5123487;27;20126;-71
2022/08/23 12:28:55;;;;;;;3.50;1.23;;;35.60;54.40;;;;;;5127042;27;20313;-69
2022/08/23 12:31:40;;;;;;;3.60;1.38;;;35.60;53.80;;;;;;5109214;27;20408;-69
2022/08/23 12:34:24;;;;;;;4.27;1.20;;;35.40;54.00;;;;;;5109216;27;20769;-68
2022/08/23 12:37:03;;;;;;;3.35;1.00;;;35.50;54.50;;;;;;5127349;27;20410;-69
2022/08/23 12:39:35;;;;;;;3.28;1.00;;;35.70;54.30;;;;;;5129508;27;20485;-68
2022/08/23 12:42:23;;;;;;;3.08;0.90;;;36.00;54.40;;;;;;5117020;27;20399;-68
2022/08/23 12:45:00;;;;;;;4.10;1.10;;;36.10;51.60;;;;;;5129028;27;20844;-69
2022/08/23 12:47:26;;;;;;;3.37;1.13;;;36.40;52.80;;;;;;5128791;27;20410;-69
2022/08/23 12:50:09;;;;;;;6.60;1.43;;;36.50;52.40;;;;;;5123444;27;20450;-68
2022/08/23 12:52:36;;;;;;;3.03;1.10;;;36.90;52.40;;;;;;5124158;27;20407;-68
2022/08/23 12:55:11;;;;;;;3.42;0.77;;;37.00;50.90;;;;;;5130340;27;20039;-69
2022/08/23 12:57:41;;;;;;;7.28;1.05;;;36.90;51.10;;;;;;5130506;27;20068;-68
2022/08/23 13:00:13;;;;;;;3.90;1.10;;;36.80;51.10;;;;;;5127004;27;20406;-71
2022/08/23 13:02:45;;;;;;;4.43;1.00;;;36.80;50.60;;;;;;5126081;27;20920;-72
2022/08/23 13:05:21;;;;;;;4.28;0.82;;;36.90;50.60;;;;;;5128227;27;20918;-72
2022/08/23 13:07:47;;;;;;;3.28;0.90;;;37.00;50.60;;;;;;5129185;27;20812;-72
2022/08/23 13:10:13;;;;;;;3.05;1.00;;;36.90;49.70;;;;;;5128961;27;20398;-72
2022/08/23 13:12:41;;;;;;;3.60;1.05;;;36.70;50.00;;;;;;5126893;27;20490;-71
2022/08/23 13:15:07;;;;;;;3.85;1.00;;;36.50;50.40;;;;;;5116472;27;20409;-72
2022/08/23 13:17:37;;;;;;;4.40;1.20;;;36.30;50.30;;;;;;5128474;27;20035;-72
2022/08/23 13:20:06;;;;;;;4.40;1.17;;;36.10;51.50;;;;;;5107539;27;20403;-72
2022/08/23 13:22:33;;;;;;;3.40;0.90;;;36.00;50.90;;;;;;5126983;27;20501;-72
2022/08/23 13:25:25;;;;;;;5.30;1.10;;;35.90;51.00;;;;;;5114507;27;20463;-72
2022/08/23 13:27:54;;;;;;;2.92;1.00;;;36.00;51.70;;;;;;5127299;27;20421;-71
2022/08/23 13:30:26;;;;;;;4.03;1.00;;;36.00;51.80;;;;;;5127238;27;20394;-71
2022/08/23 13:33:11;;;;;;;3.65;0.85;;;35.90;50.70;;;;;;5127228;27;20403;-71
2022/08/23 13:35:43;;;;;;;2.80;0.93;;;35.90;50.80;;;;;;5120380;27;20390;-71
2022/08/23 13:38:38;;;;;;;3.75;1.13;;;35.90;50.80;;;;;;5127220;27;20481;-71
2022/08/23 13:41:07;;;;;;;3.20;1.13;;;36.10;50.60;;;;;;5080078;28;20402;-72
2022/08/23 13:43:39;;;;;;;1.98;0.90;;;36.50;50.00;;;;;;5125501;28;20035;-72
2022/08/23 13:46:26;;;;;;;2.30;1.27;;;36.50;49.70;;;;;;5109082;28;20153;-71
2022/08/23 13:49:17;;;;;;;7.35;1.35;;;36.80;49.90;;;;;;5106983;28;20130;-71
2022/08/23 13:52:02;;;;;;;;;;;36.90;48.60;;;;;;5105701;28;20044;-72
2022/08/23 13:54:28;;;;;;;;;;;36.10;47.90;;;;;;5106884;28;19946;-72
2022/08/23 13:56:56;;;;;;;;;;;35.40;48.60;;;;;;5109626;28;19920;-71
2022/08/23 13:59:29;;;;;;;;;;;34.90;50.40;;;;;;5109910;28;20010;-71
2022/08/23 14:01:55;;;;;;;;;;;34.70;51.10;;;;;;5109973;28;19923;-71
2022/08/23 14:04:21;;;;;;;;;;;34.50;51.50;;;;;;5109886;28;19965;-71
2022/08/23 14:06:47;;;;;;;;;;;34.30;51.90;;;;;;5108574;28;20006;-71
2022/08/23 14:09:13;;;;;;;;;;;34.10;50.30;;;;;;5107448;28;20085;-72
2022/08/23 14:11:39;;;;;;;;;;;33.70;52.20;;;;;;5109548;28;20428;-72
2022/08/23 14:14:04;;;;;;;;;;;33.60;53.60;;;;;;5105563;28;19928;-72
2022/08/23 14:16:33;;;;;;;;;;;33.70;53.60;;;;;;5089793;28;19924;-71
2022/08/23 14:18:59;;;;;;;;;;;33.80;54.40;;;;;;5107473;28;19919;-71
2022/08/23 14:21:25;;;;;;;5.07;1.50;;;33.90;53.30;;;;;;5097420;28;19920;-71
2022/08/23 14:23:51;;;;;;;5.40;1.10;;;34.90;52.30;;;;;;5097052;28;20417;-71
2022/08/23 14:26:18;;;;;;;3.53;1.30;;;35.80;51.00;;;;;;5087762;28;20405;-71